Time;durP1;ratioP1;P1;durP2;ratioP2;P2;SDS_P1;SDS_P2;PMS_P1;PMS_P2;Temp;Humidity;BMP_temperature;BMP_pressure;BME280_temperature;BME280_humidity;BME280_pressure;Samples;Min_cycle;Max_cycle;Signal;HPM_P1;HPM_P2
2021/05/14 00:00:08;;;;;;;18.70;16.87;;;14.20;88.10;;;;;;4969059;28;20493;-91
2021/05/14 00:02:35;;;;;;;21.47;17.70;;;13.10;87.20;;;;;;4986452;28;20439;-92
2021/05/14 00:05:00;;;;;;;17.93;16.13;;;12.90;86.20;;;;;;4967641;28;20876;-91
2021/05/14 00:07:26;;;;;;;19.90;17.80;;;12.30;87.20;;;;;;4984685;28;20440;-92
2021/05/14 00:09:53;;;;;;;20.97;18.80;;;12.80;89.10;;;;;;4963690;28;20441;-92
2021/05/14 00:12:21;;;;;;;18.57;16.67;;;12.90;87.30;;;;;;4964732;28;20170;-92
2021/05/14 00:14:47;;;;;;;19.47;17.67;;;13.00;86.60;;;;;;4965385;28;20433;-91
2021/05/14 00:17:12;;;;;;;18.43;16.87;;;14.50;90.40;;;;;;4963763;28;20417;-91
2021/05/14 00:19:38;;;;;;;18.83;16.97;;;13.50;88.00;;;;;;4963797;28;20174;-91
2021/05/14 00:22:04;;;;;;;19.47;17.57;;;13.30;87.80;;;;;;4981527;28;20174;-91
2021/05/14 00:24:29;;;;;;;17.80;16.10;;;12.80;86.70;;;;;;4964219;28;20264;-92
2021/05/14 00:26:55;;;;;;;19.13;17.37;;;12.60;87.60;;;;;;4964711;28;20178;-92
2021/05/14 00:29:21;;;;;;;20.00;17.90;;;13.30;88.90;;;;;;4980012;28;20197;-92
2021/05/14 00:31:46;;;;;;;20.70;18.80;;;13.90;88.80;;;;;;4982495;28;20257;-92
2021/05/14 00:34:12;;;;;;;19.60;17.83;;;12.90;86.10;;;;;;4964534;28;20193;-92
2021/05/14 00:36:38;;;;;;;21.23;18.63;;;14.20;89.60;;;;;;4963317;28;20173;-91
2021/05/14 00:39:04;;;;;;;22.50;20.30;;;12.20;84.70;;;;;;4980084;28;20697;-91
2021/05/14 00:41:29;;;;;;;21.30;19.20;;;13.40;86.70;;;;;;4959699;28;20257;-91
2021/05/14 00:43:55;;;;;;;20.40;18.37;;;14.20;88.30;;;;;;4978001;28;20557;-91
2021/05/14 00:46:22;;;;;;;21.87;19.53;;;14.40;89.80;;;;;;4959881;28;20173;-91
2021/05/14 00:48:47;;;;;;;21.00;18.87;;;12.30;87.40;;;;;;4960671;28;20188;-91
2021/05/14 00:51:13;;;;;;;20.43;18.33;;;12.60;87.50;;;;;;4980282;28;20477;-92
2021/05/14 00:53:39;;;;;;;21.70;19.57;;;12.10;85.40;;;;;;4963784;28;20171;-92
2021/05/14 00:56:05;;;;;;;21.53;19.60;;;13.70;89.20;;;;;;4973026;28;20555;-91
2021/05/14 00:58:31;;;;;;;19.33;17.47;;;12.60;89.20;;;;;;4967262;28;20166;-90
2021/05/14 01:00:56;;;;;;;19.97;18.27;;;12.70;87.80;;;;;;4970983;28;20940;-91
2021/05/14 01:03:22;;;;;;;20.63;18.70;;;13.50;88.00;;;;;;4972724;28;20231;-91
2021/05/14 01:05:47;;;;;;;21.47;19.47;;;12.90;85.20;;;;;;4986715;28;20170;-93
2021/05/14 01:08:13;;;;;;;21.20;19.30;;;13.10;86.60;;;;;;4977337;28;20174;-91
2021/05/14 01:10:39;;;;;;;21.87;19.57;;;12.50;85.30;;;;;;4961465;28;20181;-92
2021/05/14 01:13:05;;;;;;;23.53;21.03;;;13.80;88.00;;;;;;4961148;28;20189;-92
2021/05/14 01:15:31;;;;;;;22.87;20.70;;;12.10;86.50;;;;;;4961269;28;20905;-91
2021/05/14 01:17:57;;;;;;;22.40;20.30;;;12.30;87.00;;;;;;4978535;28;20892;-91
2021/05/14 01:20:30;;;;;;;21.17;18.90;;;11.80;86.00;;;;;;4960230;28;20418;-92
2021/05/14 01:22:56;;;;;;;21.90;19.70;;;12.50;87.10;;;;;;4960337;28;20277;-91
2021/05/14 01:25:22;;;;;;;21.00;19.00;;;12.90;87.60;;;;;;4977067;28;20801;-92
2021/05/14 01:27:48;;;;;;;20.17;18.20;;;12.60;85.80;;;;;;4960894;28;20422;-92
2021/05/14 01:30:14;;;;;;;21.00;19.00;;;12.60;85.70;;;;;;4961929;28;20430;-91
2021/05/14 01:32:39;;;;;;;23.70;21.27;;;12.60;86.20;;;;;;4959812;28;20579;-91
2021/05/14 01:35:06;;;;;;;22.17;20.07;;;12.50;86.10;;;;;;4978906;28;20460;-92
2021/05/14 01:37:31;;;;;;;24.07;21.53;;;12.60;85.70;;;;;;4959424;28;20173;-92
2021/05/14 01:39:57;;;;;;;21.37;19.27;;;12.50;86.00;;;;;;4959910;28;20568;-91
2021/05/14 01:42:22;;;;;;;22.37;20.30;;;12.50;86.40;;;;;;4963584;28;20257;-92
2021/05/14 01:44:48;;;;;;;22.93;20.73;;;12.40;86.30;;;;;;4962497;28;20206;-92
2021/05/14 01:47:17;;;;;;;26.90;20.40;;;12.40;86.40;;;;;;4958741;28;20560;-91
2021/05/14 01:49:43;;;;;;;23.20;20.97;;;12.40;86.70;;;;;;4957921;28;20571;-91
2021/05/14 01:52:09;;;;;;;24.37;21.77;;;12.30;86.60;;;;;;4975269;28;20414;-91
2021/05/14 01:54:34;;;;;;;23.87;21.50;;;12.30;86.30;;;;;;4958102;28;20540;-91
2021/05/14 01:57:00;;;;;;;27.07;24.20;;;12.30;86.60;;;;;;4959901;28;20228;-91
2021/05/14 01:59:25;;;;;;;26.73;23.83;;;12.20;86.30;;;;;;4961935;28;20177;-91
2021/05/14 02:01:51;;;;;;;24.23;21.73;;;12.20;86.40;;;;;;4965067;28;20696;-92
2021/05/14 02:04:16;;;;;;;25.40;22.83;;;12.10;86.70;;;;;;4966989;28;20213;-91
2021/05/14 02:06:42;;;;;;;27.23;22.77;;;12.10;86.80;;;;;;4965301;28;20272;-92
2021/05/14 02:09:08;;;;;;;27.63;21.80;;;12.20;86.80;;;;;;4981398;28;20182;-91
2021/05/14 02:11:34;;;;;;;28.40;24.07;;;12.30;85.90;;;;;;4964168;28;20170;-92
2021/05/14 02:14:00;;;;;;;26.57;23.10;;;12.20;86.40;;;;;;4963664;28;20174;-92
2021/05/14 02:16:26;;;;;;;27.67;24.07;;;13.20;88.60;;;;;;4963274;28;20433;-92
2021/05/14 02:18:53;;;;;;;25.10;22.47;;;13.00;90.20;;;;;;4962976;28;20432;-90
2021/05/14 02:21:18;;;;;;;24.23;20.90;;;11.70;86.40;;;;;;4963992;28;20263;-92
2021/05/14 02:23:44;;;;;;;22.90;20.50;;;12.80;89.20;;;;;;4966848;28;20496;-92
2021/05/14 02:26:10;;;;;;;22.63;20.50;;;12.10;86.60;;;;;;4980708;28;20170;-91
2021/05/14 02:28:36;;;;;;;30.40;21.37;;;12.10;87.50;;;;;;4961455;28;20457;-92
2021/05/14 02:31:03;;;;;;;25.07;22.13;;;12.40;86.00;;;;;;4961370;28;20425;-91
2021/05/14 02:33:29;;;;;;;27.97;24.97;;;11.80;86.00;;;;;;4979812;28;20246;-91
2021/05/14 02:35:55;;;;;;;24.90;22.00;;;11.70;86.90;;;;;;4961987;28;20980;-92
2021/05/14 02:38:21;;;;;;;23.77;21.20;;;11.40;87.30;;;;;;4963583;28;20449;-91
2021/05/14 02:40:47;;;;;;;26.20;22.70;;;13.10;90.10;;;;;;4979779;28;20414;-92
2021/05/14 02:43:12;;;;;;;25.07;22.43;;;12.60;88.10;;;;;;4961970;28;20553;-91
2021/05/14 02:45:38;;;;;;;30.03;23.93;;;11.70;87.40;;;;;;4980613;28;20422;-91
2021/05/14 02:48:05;;;;;;;22.97;20.57;;;12.50;88.40;;;;;;4964110;28;20174;-91
2021/05/14 02:50:31;;;;;;;23.53;21.10;;;11.80;86.00;;;;;;4963657;28;20472;-92
2021/05/14 02:52:56;;;;;;;24.73;21.83;;;12.30;87.60;;;;;;4985387;28;20416;-92
2021/05/14 02:55:22;;;;;;;26.67;21.93;;;11.70;88.70;;;;;;4965844;28;20181;-93
2021/05/14 02:57:48;;;;;;;22.00;19.87;;;12.60;88.50;;;;;;4983314;28;20177;-92
2021/05/14 03:00:18;;;;;;;22.10;19.67;;;12.80;89.40;;;;;;4967446;28;20200;-91
2021/05/14 03:02:43;;;;;;;22.67;20.37;;;11.70;86.20;;;;;;4984560;28;20180;-91
2021/05/14 03:05:10;;;;;;;23.77;20.03;;;11.50;86.00;;;;;;4968674;28;20532;-91
2021/05/14 03:07:35;;;;;;;23.30;20.90;;;11.60;85.40;;;;;;4984424;28;20185;-92
2021/05/14 03:10:01;;;;;;;21.30;19.10;;;11.40;85.20;;;;;;4966839;28;20429;-92
2021/05/14 03:12:27;;;;;;;23.67;20.50;;;12.80;88.90;;;;;;4967210;28;20177;-91
2021/05/14 03:14:53;;;;;;;24.00;21.40;;;11.60;85.90;;;;;;4966164;28;20182;-92
2021/05/14 03:17:19;;;;;;;22.80;20.30;;;11.50;85.60;;;;;;4964888;28;20178;-91
2021/05/14 03:19:44;;;;;;;22.60;20.20;;;11.30;85.80;;;;;;4964512;28;20429;-92
2021/05/14 03:22:10;;;;;;;24.20;21.60;;;10.60;84.40;;;;;;4982305;28;20166;-91
2021/05/14 03:24:35;;;;;;;21.27;19.07;;;11.20;86.80;;;;;;4965308;28;20206;-91
2021/05/14 03:27:01;;;;;;;23.00;20.53;;;12.60;88.60;;;;;;4964801;28;20169;-91
2021/05/14 03:29:26;;;;;;;23.60;21.00;;;12.10;87.90;;;;;;4966130;28;20189;-91
2021/05/14 03:31:52;;;;;;;26.53;21.70;;;10.60;85.60;;;;;;4964872;28;20258;-91
2021/05/14 03:34:18;;;;;;;25.03;21.50;;;10.60;86.50;;;;;;4966425;28;20178;-91
2021/05/14 03:36:43;;;;;;;23.40;20.90;;;12.90;89.90;;;;;;4964887;28;20180;-91
2021/05/14 03:39:09;;;;;;;24.37;21.80;;;11.80;88.90;;;;;;4981432;28;20242;-92
2021/05/14 03:44:23;;;;;;;21.43;19.30;;;10.80;86.00;;;;;;4981921;28;20678;-91
2021/05/14 03:46:48;;;;;;;23.67;20.10;;;11.00;86.80;;;;;;4965650;28;20437;-91
2021/05/14 03:49:14;;;;;;;22.53;20.13;;;13.10;89.00;;;;;;4983078;28;20601;-91
2021/05/14 03:51:40;;;;;;;23.83;21.37;;;11.90;86.70;;;;;;4982219;28;20173;-91
2021/05/14 03:54:06;;;;;;;24.63;21.50;;;11.20;87.20;;;;;;4981799;28;20174;-89
2021/05/14 03:56:32;;;;;;;24.40;21.87;;;11.10;87.00;;;;;;4972355;28;20185;-89
2021/05/14 03:58:59;;;;;;;25.07;22.37;;;10.50;86.40;;;;;;4972602;28;20441;-89
2021/05/14 04:01:27;;;;;;;25.83;23.20;;;10.80;87.10;;;;;;4973312;28;20432;-89
2021/05/14 04:03:52;;;;;;;25.13;21.20;;;10.50;86.60;;;;;;4973479;28;20469;-90
2021/05/14 04:06:18;;;;;;;24.07;21.63;;;10.80;87.60;;;;;;4985692;28;20999;-91
2021/05/14 04:08:44;;;;;;;24.90;22.27;;;10.70;87.30;;;;;;4979758;28;20170;-91
2021/05/14 04:16:25;;;;;;;25.87;23.17;;;10.60;87.60;;;;;;4979137;28;20440;-91
2021/05/14 04:18:51;;;;;;;25.53;22.83;;;10.70;88.40;;;;;;4962006;28;20422;-92
2021/05/14 04:21:16;;;;;;;24.00;21.70;;;11.20;88.70;;;;;;4965960;28;20166;-92
2021/05/14 04:23:42;;;;;;;24.77;22.13;;;11.10;88.50;;;;;;4960676;28;20292;-92
2021/05/14 04:26:07;;;;;;;23.80;21.33;;;11.00;88.00;;;;;;4961222;28;20213;-91
2021/05/14 04:28:33;;;;;;;21.87;19.37;;;11.10;88.50;;;;;;4961617;28;20264;-92
2021/05/14 04:30:59;;;;;;;23.27;20.80;;;13.10;90.20;;;;;;4959808;28;20660;-91
2021/05/14 04:33:24;;;;;;;21.73;19.70;;;11.40;87.10;;;;;;4962546;28;20640;-91
2021/05/14 04:35:51;;;;;;;19.77;17.97;;;12.50;89.00;;;;;;4961441;28;20169;-90
2021/05/14 04:38:17;;;;;;;21.73;19.47;;;11.60;85.10;;;;;;4964298;28;20174;-92
2021/05/14 04:40:43;;;;;;;19.47;17.57;;;11.30;83.30;;;;;;4971784;28;20425;-91
2021/05/14 04:43:08;;;;;;;18.37;16.50;;;10.90;82.30;;;;;;4971209;28;20489;-92
2021/05/14 04:45:36;;;;;;;18.63;16.63;;;11.30;83.50;;;;;;4972151;28;20305;-90
2021/05/14 04:48:02;;;;;;;19.50;17.20;;;10.80;82.60;;;;;;4982699;28;20177;-91
2021/05/14 04:50:27;;;;;;;20.23;18.37;;;11.60;83.40;;;;;;4982873;28;20424;-92
2021/05/14 04:53:02;;;;;;;20.40;18.50;;;12.10;85.20;;;;;;4983008;28;20410;-92
2021/05/14 04:55:28;;;;;;;18.10;16.40;;;11.50;84.70;;;;;;4967244;28;20259;-93
2021/05/14 04:57:56;;;;;;;18.60;16.90;;;11.50;85.70;;;;;;5132218;23;20481;-87
2021/05/14 05:03:34;;;;;;;17.40;15.80;;;11.70;83.80;;;;;;5524191;22;20477;31
2021/05/14 05:06:02;;;;;;;17.87;16.17;;;11.70;84.10;;;;;;5193476;23;20491;-89
2021/05/14 05:08:28;;;;;;;16.93;15.53;;;12.50;86.50;;;;;;5573350;23;20557;-87
2021/05/14 05:19:27;;;;;;;17.27;15.77;;;12.00;82.60;;;;;;4986410;22;20488;-86
2021/05/14 05:21:53;;;;;;;15.77;14.50;;;11.50;82.40;;;;;;4974907;28;20739;-85
2021/05/14 05:24:18;;;;;;;15.00;13.80;;;12.10;82.70;;;;;;4974774;28;20283;-86
2021/05/14 05:26:44;;;;;;;16.33;14.97;;;12.20;81.70;;;;;;4958066;28;20181;-87
2021/05/14 05:29:10;;;;;;;17.20;15.80;;;12.30;81.60;;;;;;4975576;28;20261;-85
2021/05/14 05:31:36;;;;;;;14.93;13.63;;;12.40;81.20;;;;;;4957524;28;20500;-87
2021/05/14 05:34:01;;;;;;;14.43;13.37;;;12.50;80.10;;;;;;4958090;28;20653;-86
2021/05/14 05:36:29;;;;;;;15.40;14.10;;;12.60;79.80;;;;;;4974616;28;20166;-85
2021/05/14 05:38:55;;;;;;;15.37;13.87;;;12.70;79.50;;;;;;4612380;28;10000237;-85
2021/05/14 05:41:20;;;;;;;14.00;12.90;;;12.80;79.00;;;;;;4971839;28;20170;-86
2021/05/14 05:43:46;;;;;;;14.20;13.07;;;12.80;78.70;;;;;;4971626;28;20213;-86
2021/05/14 05:46:12;;;;;;;14.37;13.27;;;12.90;78.80;;;;;;4972299;28;20220;-87
2021/05/14 05:48:38;;;;;;;14.10;12.80;;;12.90;77.90;;;;;;4955106;28;20194;-86
2021/05/14 05:51:06;;;;;;;16.30;14.60;;;13.00;78.10;;;;;;4955317;28;20406;-86
2021/05/14 05:53:31;;;;;;;15.07;13.67;;;13.00;78.00;;;;;;4952481;28;20225;-86
2021/05/14 05:55:57;;;;;;;14.90;13.47;;;13.10;77.90;;;;;;4963077;28;20451;-87
2021/05/14 05:58:23;;;;;;;14.90;12.50;;;13.40;77.30;;;;;;4972778;28;20178;-87
2021/05/14 06:00:48;;;;;;;14.33;13.03;;;13.50;75.40;;;;;;4973479;28;20177;-85
2021/05/14 06:03:15;;;;;;;13.13;12.03;;;12.10;73.90;;;;;;4971717;28;20347;-84
2021/05/14 06:05:40;;;;;;;13.67;12.33;;;13.60;75.10;;;;;;4971995;28;20602;-85
2021/05/14 06:08:06;;;;;;;13.07;11.97;;;13.80;74.50;;;;;;4971761;28;20453;-85
2021/05/14 06:10:32;;;;;;;12.90;11.90;;;13.90;74.70;;;;;;4972106;28;20224;-86
2021/05/14 06:12:58;;;;;;;12.13;11.33;;;14.00;74.60;;;;;;4972228;28;20454;-86
2021/05/14 06:15:24;;;;;;;13.60;12.20;;;14.30;72.70;;;;;;4971982;28;20185;-87
2021/05/14 06:17:49;;;;;;;12.97;12.10;;;14.50;72.30;;;;;;4972359;28;20236;-86
2021/05/14 06:20:18;;;;;;;12.90;12.10;;;14.50;71.60;;;;;;4971934;28;20213;-85
2021/05/14 06:22:44;;;;;;;12.90;11.83;;;14.70;70.60;;;;;;4971911;28;20445;-86
2021/05/14 06:25:10;;;;;;;12.37;11.47;;;14.90;69.90;;;;;;4968549;28;20520;-86
2021/05/14 06:27:36;;;;;;;11.93;10.97;;;15.00;68.50;;;;;;4969747;28;20174;-88
2021/05/14 06:30:03;;;;;;;13.27;12.03;;;14.90;67.40;;;;;;4953783;28;20425;-85
2021/05/14 06:32:28;;;;;;;12.47;11.47;;;15.10;65.90;;;;;;4971651;28;20473;-86
2021/05/14 06:34:54;;;;;;;11.90;11.00;;;15.10;64.90;;;;;;4972770;28;20409;-85
2021/05/14 06:37:20;;;;;;;12.70;11.60;;;15.10;66.00;;;;;;4975058;28;20184;-86
2021/05/14 06:39:47;;;;;;;11.93;11.07;;;15.00;66.60;;;;;;4976680;28;20501;-85
2021/05/14 06:42:14;;;;;;;12.00;11.10;;;15.70;66.70;;;;;;4988950;28;20437;-88
2021/05/14 06:44:41;;;;;;;12.20;11.20;;;15.30;65.60;;;;;;4992774;28;20920;-89
2021/05/14 06:47:07;;;;;;;12.23;11.23;;;15.30;65.40;;;;;;4974865;28;20447;-88
2021/05/14 06:49:35;;;;;;;12.13;11.33;;;15.80;65.80;;;;;;4968009;28;20532;-90
2021/05/14 06:52:02;;;;;;;12.17;11.40;;;15.60;66.10;;;;;;4978967;28;20433;-89
2021/05/14 06:54:27;;;;;;;12.63;11.73;;;17.50;66.40;;;;;;4983006;28;20480;-91
2021/05/14 06:56:53;;;;;;;14.33;11.83;;;14.90;63.60;;;;;;4976481;28;20449;-90
2021/05/14 06:59:22;;;;;;;12.67;11.57;;;14.60;59.20;;;;;;4966230;29;20207;-91
2021/05/14 07:01:50;;;;;;;12.27;11.47;;;17.00;63.90;;;;;;4944760;29;20175;-89
2021/05/14 07:04:15;;;;;;;13.83;12.63;;;16.10;59.80;;;;;;4962542;29;20481;-90
2021/05/14 07:06:41;;;;;;;12.73;11.40;;;15.60;60.50;;;;;;4950370;29;20898;-91
2021/05/14 07:09:08;;;;;;;11.57;10.57;;;16.80;60.50;;;;;;4964226;29;20618;-88
2021/05/14 07:11:34;;;;;;;10.73;10.03;;;17.30;65.60;;;;;;4972220;29;20170;-89
2021/05/14 07:13:59;;;;;;;11.70;10.80;;;17.50;61.60;;;;;;4953619;29;20454;-88
2021/05/14 07:16:26;;;;;;;12.53;11.53;;;18.70;66.50;;;;;;4952717;29;20206;-88
2021/05/14 07:18:56;;;;;;;11.30;10.40;;;19.80;59.60;;;;;;4968210;29;20586;-89
2021/05/14 07:21:24;;;;;;;12.40;11.60;;;21.90;65.60;;;;;;4949097;28;20421;-89
2021/05/14 07:23:50;;;;;;;11.40;10.50;;;18.80;57.40;;;;;;4987386;28;20453;-87
2021/05/14 07:26:17;;;;;;;10.10;9.43;;;20.10;56.10;;;;;;4970308;28;20447;-88
2021/05/14 07:28:42;;;;;;;11.67;10.73;;;19.80;56.40;;;;;;4938611;28;20185;-87
2021/05/14 07:31:08;;;;;;;10.83;10.13;;;21.30;57.20;;;;;;4963826;28;20933;-86
2021/05/14 07:33:39;;;;;;;10.23;9.60;;;17.60;53.00;;;;;;4970201;28;20302;-88
2021/05/14 07:36:11;;;;;;;11.40;10.40;;;19.70;54.70;;;;;;4987529;28;20182;-89
2021/05/14 07:38:42;;;;;;;10.10;9.40;;;20.20;55.20;;;;;;4990980;28;20790;-88
2021/05/14 07:41:11;;;;;;;11.87;10.93;;;20.60;55.70;;;;;;4971538;28;20417;-88
2021/05/14 07:43:37;;;;;;;11.47;10.70;;;21.60;56.80;;;;;;4974400;28;20445;-89
2021/05/14 07:46:03;;;;;;;13.03;12.03;;;20.10;54.30;;;;;;4971037;28;20430;-88
2021/05/14 07:48:29;;;;;;;11.80;10.90;;;19.40;54.80;;;;;;4973444;28;20170;-88
2021/05/14 07:50:55;;;;;;;12.00;11.20;;;21.10;55.70;;;;;;4992871;28;20471;-87
2021/05/14 07:53:21;;;;;;;11.57;10.77;;;24.80;55.70;;;;;;4971289;28;20984;-89
2021/05/14 07:55:49;;;;;;;11.07;10.17;;;19.50;50.70;;;;;;4977256;28;20205;-88
2021/05/14 07:58:20;;;;;;;12.17;11.20;;;22.20;50.90;;;;;;4987473;28;20456;-90
2021/05/14 08:00:54;;;;;;;11.37;10.67;;;20.50;52.20;;;;;;4995477;28;20429;-89
2021/05/14 08:03:22;;;;;;;11.20;10.50;;;23.80;53.70;;;;;;4977542;28;20432;-88
2021/05/14 08:05:50;;;;;;;10.33;9.73;;;20.60;53.70;;;;;;4973767;28;20485;-90
2021/05/14 08:08:19;;;;;;;9.70;9.20;;;23.20;52.70;;;;;;4991037;28;20445;-91
2021/05/14 08:10:47;;;;;;;10.57;9.97;;;21.10;49.70;;;;;;4972649;28;20466;-89
2021/05/14 08:13:13;;;;;;;10.90;10.10;;;20.10;49.70;;;;;;4965776;28;20965;-90
2021/05/14 08:15:39;;;;;;;10.40;9.87;;;21.50;53.00;;;;;;4978855;28;20414;-90
2021/05/14 08:18:06;;;;;;;9.80;9.30;;;23.40;51.50;;;;;;4977967;28;20480;-90
2021/05/14 08:20:32;;;;;;;11.20;10.40;;;23.20;50.90;;;;;;4979439;28;20491;-89
2021/05/14 08:23:00;;;;;;;10.90;10.27;;;19.90;48.00;;;;;;4979492;28;20441;-91
2021/05/14 08:25:26;;;;;;;10.37;9.67;;;;;;;;;;4979807;28;20537;-89
2021/05/14 08:27:54;;;;;;;10.87;10.27;;;21.40;48.50;;;;;;4982319;28;20479;-90
2021/05/14 08:30:23;;;;;;;10.33;9.43;;;21.90;47.90;;;;;;4990244;28;20405;-89
2021/05/14 08:32:49;;;;;;;10.40;9.70;;;22.20;46.10;;;;;;4973991;28;20405;-88
2021/05/14 08:35:15;;;;;;;9.83;9.13;;;22.40;46.60;;;;;;4968019;28;20579;-88
2021/05/14 08:37:41;;;;;;;9.40;8.80;;;22.60;46.40;;;;;;4967921;28;20480;-88
2021/05/14 08:40:08;;;;;;;9.00;8.50;;;23.10;45.10;;;;;;4966718;28;20260;-89
2021/05/14 08:42:39;;;;;;;9.20;8.40;;;23.10;43.70;;;;;;4984938;28;20406;-90
2021/05/14 08:45:08;;;;;;;8.03;7.70;;;23.00;44.00;;;;;;4984799;28;20467;-90
2021/05/14 08:47:37;;;;;;;8.10;7.40;;;22.40;44.50;;;;;;4966924;28;20425;-90
2021/05/14 08:50:04;;;;;;;8.10;7.60;;;23.40;44.60;;;;;;4982723;28;20421;-92
2021/05/14 08:52:40;;;;;;;7.03;6.63;;;23.50;42.40;;;;;;4967402;28;20434;-88
2021/05/14 08:55:07;;;;;;;8.23;7.73;;;24.00;40.80;;;;;;4639887;28;10000261;-90
2021/05/14 08:57:33;;;;;;;7.37;7.03;;;24.40;40.80;;;;;;4965092;28;20252;-90
2021/05/14 09:00:00;;;;;;;7.47;7.10;;;25.40;39.90;;;;;;4983861;28;20496;-85
2021/05/14 09:02:26;;;;;;;9.00;8.47;;;25.80;39.10;;;;;;4989112;28;20440;-88
2021/05/14 09:04:52;;;;;;;9.23;8.53;;;25.40;38.60;;;;;;4974765;28;20481;-88
2021/05/14 09:07:19;;;;;;;11.50;10.67;;;26.30;36.50;;;;;;4986746;28;20249;-89
2021/05/14 09:10:24;;;;;;;10.87;10.00;;;26.30;34.70;;;;;;4964485;28;20185;-86
2021/05/14 09:12:50;;;;;;;9.73;9.13;;;26.90;33.10;;;;;;4899738;29;21110;-87
2021/05/14 09:15:26;;;;;;;8.33;7.83;;;26.60;34.20;;;;;;4905785;29;20456;-87
2021/05/14 09:18:16;;;;;;;7.07;6.57;;;27.00;33.30;;;;;;4938929;29;20472;-90
2021/05/14 09:21:48;;;;;;;10.13;9.60;;;29.00;33.20;;;;;;4971448;29;20434;-90
2021/05/14 09:24:48;;;;;;;12.77;11.97;;;28.80;31.30;;;;;;4956560;28;20479;-87
2021/05/14 09:27:38;;;;;;;13.40;12.40;;;27.80;30.90;;;;;;4961038;28;20448;-91
2021/05/14 09:30:44;;;;;;;12.57;11.60;;;27.40;32.20;;;;;;4969328;28;20434;-88
2021/05/14 09:33:26;;;;;;;11.53;10.53;;;27.90;30.90;;;;;;4974482;29;20421;-91
2021/05/14 09:36:00;;;;;;;10.57;9.97;;;28.80;29.20;;;;;;4968215;29;20506;-87
2021/05/14 09:38:42;;;;;;;6.37;6.17;;;29.60;29.30;;;;;;4954347;29;20481;-88
2021/05/14 09:41:40;;;;;;;7.27;6.60;;;28.30;28.60;;;;;;4970725;28;20584;-93
2021/05/14 09:44:16;;;;;;;5.00;4.80;;;29.10;28.30;;;;;;4967863;28;20532;-91
2021/05/14 09:46:44;;;;;;;6.53;6.20;;;29.70;27.90;;;;;;4973319;28;20424;-90
2021/05/14 09:49:18;;;;;;;6.13;5.83;;;29.50;27.50;;;;;;4968705;28;20474;-92
2021/05/14 09:51:51;;;;;;;6.30;5.97;;;29.60;27.80;;;;;;4950110;29;20506;-89
2021/05/14 09:54:27;;;;;;;7.87;7.37;;;28.70;28.80;;;;;;4947175;29;20517;-91
2021/05/14 10:00:12;;;;;;;14.67;12.50;;;28.30;29.00;;;;;;4982477;28;20424;-92
2021/05/14 10:02:41;;;;;;;6.20;5.70;;;29.10;28.40;;;;;;4967142;28;20441;-90
2021/05/14 10:05:10;;;;;;;7.07;6.77;;;30.10;27.80;;;;;;4968435;28;20465;-91
2021/05/14 10:07:39;;;;;;;7.10;6.70;;;30.50;27.50;;;;;;4988354;28;20422;-87
2021/05/14 10:10:11;;;;;;;9.00;8.40;;;29.90;27.00;;;;;;4947975;28;20437;-87
2021/05/14 10:12:37;;;;;;;8.00;7.30;;;29.40;28.20;;;;;;4961437;28;20512;-88
2021/05/14 10:15:07;;;;;;;4.20;4.10;;;29.20;28.20;;;;;;4960489;28;20453;-84
2021/05/14 10:17:39;;;;;;;3.60;3.30;;;28.10;26.80;;;;;;4983179;28;20453;-90
2021/05/14 10:20:12;;;;;;;3.37;3.30;;;27.80;27.60;;;;;;4977295;28;20512;-85
2021/05/14 10:22:38;;;;;;;3.17;3.07;;;28.20;27.30;;;;;;4962442;28;20471;-87
2021/05/14 10:25:05;;;;;;;3.50;2.67;;;28.30;27.10;;;;;;4979933;28;20469;-87
2021/05/14 10:27:45;;;;;;;3.67;3.57;;;27.60;27.50;;;;;;4960222;28;20432;-88
2021/05/14 10:30:11;;;;;;;3.43;3.43;;;27.30;27.90;;;;;;4961038;28;20417;-86
2021/05/14 10:32:42;;;;;;;3.37;3.17;;;27.30;28.20;;;;;;4960238;28;20424;-85
2021/05/14 10:35:09;;;;;;;2.80;2.70;;;27.20;27.60;;;;;;4978006;28;20743;-84
2021/05/14 10:37:46;;;;;;;6.17;5.87;;;27.00;27.50;;;;;;4977059;28;20429;-85
2021/05/14 10:40:33;;;;;;;5.83;5.63;;;27.00;28.50;;;;;;4981314;28;20428;-90
2021/05/14 10:43:20;;;;;;;3.17;2.87;;;27.80;28.20;;;;;;4997022;28;20432;-91
2021/05/14 10:46:10;;;;;;;2.50;2.50;;;27.80;27.50;;;;;;4976092;28;20448;-89
2021/05/14 10:51:18;;;;;;;2.43;2.43;;;28.80;26.60;;;;;;5037366;22;20489;-85
2021/05/14 10:53:46;;;;;;;2.10;2.10;;;28.60;26.60;;;;;;4980359;28;20479;-88
2021/05/14 10:56:12;;;;;;;2.83;2.83;;;28.20;26.60;;;;;;4981981;28;20266;-88
2021/05/14 10:58:38;;;;;;;4.40;4.20;;;27.80;26.90;;;;;;4977089;28;20547;-87
2021/05/14 11:01:04;;;;;;;4.23;4.13;;;27.70;28.00;;;;;;4975391;28;20262;-87
2021/05/14 11:03:35;;;;;;;5.07;4.77;;;27.70;28.30;;;;;;4946166;29;20233;-86
2021/05/14 11:06:19;;;;;;;5.87;5.70;;;26.80;28.10;;;;;;4967648;29;20494;-87
2021/05/14 11:09:12;;;;;;;5.90;5.43;;;27.00;28.90;;;;;;4963330;29;20517;-87
2021/05/14 11:12:01;;;;;;;5.73;5.53;;;26.40;29.00;;;;;;4956208;29;20461;-88
2021/05/14 11:14:51;;;;;;;5.57;5.23;;;26.80;28.80;;;;;;4940414;29;20415;-86
2021/05/14 11:17:18;;;;;;;5.17;4.97;;;27.50;28.40;;;;;;4942550;29;20441;-88
2021/05/14 11:19:52;;;;;;;5.10;4.87;;;27.80;28.10;;;;;;4958150;28;20501;-87
2021/05/14 11:22:53;;;;;;;6.03;5.83;;;28.30;27.90;;;;;;4964029;29;20425;-92
2021/05/14 11:25:23;;;;;;;5.60;5.50;;;28.50;27.40;;;;;;4972075;29;20481;-89
2021/05/14 11:27:55;;;;;;;5.10;4.90;;;28.40;28.10;;;;;;4973821;29;20477;-91
2021/05/14 11:30:23;;;;;;;6.10;5.77;;;28.50;28.00;;;;;;4968898;29;20493;-90
2021/05/14 11:32:54;;;;;;;5.97;5.57;;;29.00;27.90;;;;;;4953596;29;20422;-90
2021/05/14 11:35:22;;;;;;;6.30;5.30;;;29.50;27.00;;;;;;4968975;29;20422;-88
2021/05/14 11:37:55;;;;;;;5.87;5.70;;;29.40;26.50;;;;;;4966625;28;20445;-88
2021/05/14 11:40:36;;;;;;;5.13;4.83;;;29.40;26.80;;;;;;4970180;28;20508;-90
2021/05/14 11:43:06;;;;;;;5.23;4.93;;;30.20;26.40;;;;;;4979019;28;20436;-89
2021/05/14 11:45:36;;;;;;;5.37;5.17;;;30.50;25.70;;;;;;4996580;28;20465;-88
2021/05/14 11:48:24;;;;;;;5.00;4.80;;;29.90;25.50;;;;;;4971955;28;20425;-89
2021/05/14 11:50:53;;;;;;;3.70;3.43;;;28.40;26.10;;;;;;4968502;28;21035;-88
2021/05/14 11:53:20;;;;;;;2.93;2.93;;;26.60;26.50;;;;;;4982508;28;20959;-87
2021/05/14 11:55:48;;;;;;;3.27;3.17;;;26.40;27.50;;;;;;4977772;28;20421;-87
2021/05/14 11:58:14;;;;;;;2.17;2.07;;;26.80;27.30;;;;;;4961694;28;20940;-86
2021/05/14 12:00:52;;;;;;;3.87;3.40;;;26.10;26.70;;;;;;4959763;28;20504;-87
2021/05/14 12:03:23;;;;;;;2.37;2.17;;;25.10;27.00;;;;;;4979491;28;20413;-87
2021/05/14 12:05:50;;;;;;;3.63;3.50;;;24.40;27.60;;;;;;4961942;28;20426;-89
2021/05/14 12:08:17;;;;;;;2.70;2.50;;;24.40;28.40;;;;;;4978088;28;20414;-90
2021/05/14 12:11:01;;;;;;;2.70;2.70;;;25.50;28.90;;;;;;4979725;28;20417;-90
2021/05/14 12:13:29;;;;;;;2.77;2.57;;;24.30;28.90;;;;;;4980016;28;20418;-88
2021/05/14 12:16:10;;;;;;;3.53;3.20;;;24.90;28.50;;;;;;4961489;28;20445;-87
2021/05/14 12:18:47;;;;;;;2.77;2.60;;;25.80;28.30;;;;;;4982175;28;20472;-90
2021/05/14 12:21:36;;;;;;;2.77;2.67;;;26.50;27.90;;;;;;4968281;28;20485;-90
2021/05/14 12:24:16;;;;;;;3.40;3.20;;;27.00;26.80;;;;;;4965672;28;20496;-89
2021/05/14 12:26:47;;;;;;;3.10;2.90;;;27.30;26.90;;;;;;4965376;28;20427;-88
2021/05/14 12:29:30;;;;;;;2.50;2.40;;;29.00;26.90;;;;;;4969169;28;20517;-90
2021/05/14 12:32:00;;;;;;;4.43;4.23;;;28.70;26.20;;;;;;4970277;28;20485;-88
2021/05/14 12:34:28;;;;;;;2.70;2.60;;;28.50;26.20;;;;;;4971028;28;20429;-90
2021/05/14 12:36:58;;;;;;;3.27;3.17;;;28.80;26.10;;;;;;4947145;29;20511;-89
2021/05/14 12:45:41;;;;;;;3.90;3.70;;;28.80;26.00;;;;;;4942043;28;20559;-92
2021/05/14 12:48:09;;;;;;;4.70;4.30;;;28.30;26.70;;;;;;4957472;28;20417;-90
2021/05/14 12:50:35;;;;;;;5.03;4.60;;;29.00;26.60;;;;;;4965160;28;20477;-89
2021/05/14 12:53:02;;;;;;;2.60;2.60;;;29.50;25.80;;;;;;4973256;23;20489;-91
2021/05/14 12:55:29;;;;;;;3.17;3.00;;;29.60;25.80;;;;;;4943928;29;20427;-89
2021/05/14 12:57:57;;;;;;;4.07;3.80;;;30.10;25.40;;;;;;4967413;28;20959;-91
2021/05/14 13:00:25;;;;;;;3.70;3.70;;;30.20;25.30;;;;;;4969217;28;20817;-92
2021/05/14 13:03:09;;;;;;;9.30;8.50;;;30.50;25.40;;;;;;4964707;29;20422;-88
2021/05/14 13:05:46;;;;;;;3.03;2.93;;;29.90;25.70;;;;;;4966598;29;20474;-89
2021/05/14 13:08:19;;;;;;;7.80;5.47;;;28.80;25.80;;;;;;4967517;29;20482;-90
2021/05/14 13:10:53;;;;;;;3.53;3.53;;;27.10;26.90;;;;;;4960851;29;20422;-91
2021/05/14 13:13:22;;;;;;;4.43;4.10;;;25.90;27.50;;;;;;4961562;28;20430;-90